sensor_id;sensor_type;location;lat;lon;timestamp;P1;durP1;ratioP1;P2;durP2;ratioP2
21183;SDS011;18176;49.502;11.754;2022-10-30T00:02:32;13.30;;;9.20;;
21183;SDS011;18176;49.502;11.754;2022-10-30T00:06:35;18.47;;;9.40;;
21183;SDS011;18176;49.502;11.754;2022-10-30T00:10:35;17.50;;;9.50;;
21183;SDS011;18176;49.502;11.754;2022-10-30T00:14:35;13.80;;;8.83;;
21183;SDS011;18176;49.502;11.754;2022-10-30T00:18:35;15.23;;;9.50;;
21183;SDS011;18176;49.502;11.754;2022-10-30T00:22:40;16.90;;;9.30;;
21183;SDS011;18176;49.502;11.754;2022-10-30T00:26:40;17.27;;;9.17;;
21183;SDS011;18176;49.502;11.754;2022-10-30T00:30:40;18.57;;;9.23;;
21183;SDS011;18176;49.502;11.754;2022-10-30T00:34:40;13.30;;;7.90;;
21183;SDS011;18176;49.502;11.754;2022-10-30T00:38:43;14.53;;;8.53;;
21183;SDS011;18176;49.502;11.754;2022-10-30T00:42:43;17.67;;;8.57;;
21183;SDS011;18176;49.502;11.754;2022-10-30T00:46:44;16.40;;;8.50;;
21183;SDS011;18176;49.502;11.754;2022-10-30T00:50:44;13.40;;;7.50;;
21183;SDS011;18176;49.502;11.754;2022-10-30T00:54:47;13.60;;;8.97;;
21183;SDS011;18176;49.502;11.754;2022-10-30T00:58:49;16.50;;;8.40;;
21183;SDS011;18176;49.502;11.754;2022-10-30T01:02:55;12.50;;;7.83;;
21183;SDS011;18176;49.502;11.754;2022-10-30T01:06:56;12.90;;;7.73;;
21183;SDS011;18176;49.502;11.754;2022-10-30T01:11:06;13.47;;;7.70;;
21183;SDS011;18176;49.502;11.754;2022-10-30T01:15:09;16.03;;;8.13;;
21183;SDS011;18176;49.502;11.754;2022-10-30T01:19:13;16.97;;;8.10;;
21183;SDS011;18176;49.502;11.754;2022-10-30T01:23:25;14.93;;;7.33;;
21183;SDS011;18176;49.502;11.754;2022-10-30T01:27:41;17.73;;;7.80;;
21183;SDS011;18176;49.502;11.754;2022-10-30T01:31:59;14.67;;;7.77;;
21183;SDS011;18176;49.502;11.754;2022-10-30T01:36:18;17.50;;;8.63;;
21183;SDS011;18176;49.502;11.754;2022-10-30T01:40:27;17.53;;;8.30;;
21183;SDS011;18176;49.502;11.754;2022-10-30T01:44:30;14.50;;;7.80;;
21183;SDS011;18176;49.502;11.754;2022-10-30T01:48:37;14.70;;;7.50;;
21183;SDS011;18176;49.502;11.754;2022-10-30T01:53:15;12.17;;;7.40;;
21183;SDS011;18176;49.502;11.754;2022-10-30T01:57:33;16.77;;;7.73;;
21183;SDS011;18176;49.502;11.754;2022-10-30T02:01:43;15.03;;;8.20;;
21183;SDS011;18176;49.502;11.754;2022-10-30T02:05:46;12.33;;;8.20;;
21183;SDS011;18176;49.502;11.754;2022-10-30T02:09:51;13.50;;;7.83;;
21183;SDS011;18176;49.502;11.754;2022-10-30T02:13:56;17.73;;;8.30;;
21183;SDS011;18176;49.502;11.754;2022-10-30T02:18:01;16.60;;;7.93;;
21183;SDS011;18176;49.502;11.754;2022-10-30T02:22:04;17.13;;;8.43;;
21183;SDS011;18176;49.502;11.754;2022-10-30T02:26:05;14.27;;;7.50;;
21183;SDS011;18176;49.502;11.754;2022-10-30T02:30:06;15.83;;;7.27;;
21183;SDS011;18176;49.502;11.754;2022-10-30T02:34:07;13.70;;;7.07;;
21183;SDS011;18176;49.502;11.754;2022-10-30T02:38:10;10.90;;;6.63;;
21183;SDS011;18176;49.502;11.754;2022-10-30T02:42:10;15.00;;;7.27;;
21183;SDS011;18176;49.502;11.754;2022-10-30T02:46:10;18.37;;;7.63;;
21183;SDS011;18176;49.502;11.754;2022-10-30T02:50:11;14.77;;;7.60;;
21183;SDS011;18176;49.502;11.754;2022-10-30T02:54:14;16.17;;;7.83;;
21183;SDS011;18176;49.502;11.754;2022-10-30T02:58:14;15.67;;;7.77;;
21183;SDS011;18176;49.502;11.754;2022-10-30T03:02:15;11.63;;;6.83;;
21183;SDS011;18176;49.502;11.754;2022-10-30T03:06:15;18.17;;;8.17;;
21183;SDS011;18176;49.502;11.754;2022-10-30T03:10:19;17.53;;;7.37;;
21183;SDS011;18176;49.502;11.754;2022-10-30T03:14:19;18.00;;;7.63;;
21183;SDS011;18176;49.502;11.754;2022-10-30T03:18:19;12.77;;;7.53;;
21183;SDS011;18176;49.502;11.754;2022-10-30T03:22:19;12.07;;;7.30;;
21183;SDS011;18176;49.502;11.754;2022-10-30T03:26:22;14.23;;;7.37;;
21183;SDS011;18176;49.502;11.754;2022-10-30T03:30:29;12.80;;;7.67;;
21183;SDS011;18176;49.502;11.754;2022-10-30T03:34:29;19.30;;;7.83;;
21183;SDS011;18176;49.502;11.754;2022-10-30T03:38:33;16.80;;;8.10;;
21183;SDS011;18176;49.502;11.754;2022-10-30T03:42:36;19.30;;;8.47;;
21183;SDS011;18176;49.502;11.754;2022-10-30T03:46:38;15.43;;;8.60;;
21183;SDS011;18176;49.502;11.754;2022-10-30T03:50:48;13.70;;;7.87;;
21183;SDS011;18176;49.502;11.754;2022-10-30T03:54:50;16.43;;;7.67;;
21183;SDS011;18176;49.502;11.754;2022-10-30T03:58:53;17.23;;;7.87;;
21183;SDS011;18176;49.502;11.754;2022-10-30T04:02:53;15.33;;;6.83;;
21183;SDS011;18176;49.502;11.754;2022-10-30T04:06:55;11.97;;;6.70;;
21183;SDS011;18176;49.502;11.754;2022-10-30T04:10:55;14.27;;;7.47;;
21183;SDS011;18176;49.502;11.754;2022-10-30T04:14:58;11.73;;;7.40;;
21183;SDS011;18176;49.502;11.754;2022-10-30T04:18:59;12.93;;;7.07;;
21183;SDS011;18176;49.502;11.754;2022-10-30T04:22:59;17.53;;;7.90;;
21183;SDS011;18176;49.502;11.754;2022-10-30T04:27:02;13.87;;;7.73;;
21183;SDS011;18176;49.502;11.754;2022-10-30T04:31:05;17.00;;;7.80;;
21183;SDS011;18176;49.502;11.754;2022-10-30T04:35:05;14.60;;;8.13;;
21183;SDS011;18176;49.502;11.754;2022-10-30T04:39:07;12.17;;;7.30;;
21183;SDS011;18176;49.502;11.754;2022-10-30T04:43:08;21.50;;;7.90;;
21183;SDS011;18176;49.502;11.754;2022-10-30T04:47:17;18.23;;;7.80;;
21183;SDS011;18176;49.502;11.754;2022-10-30T04:51:18;11.00;;;7.80;;
21183;SDS011;18176;49.502;11.754;2022-10-30T04:55:18;12.47;;;7.50;;
21183;SDS011;18176;49.502;11.754;2022-10-30T04:59:19;12.90;;;7.40;;
21183;SDS011;18176;49.502;11.754;2022-10-30T05:03:24;12.07;;;7.30;;
21183;SDS011;18176;49.502;11.754;2022-10-30T05:07:24;10.47;;;7.03;;
21183;SDS011;18176;49.502;11.754;2022-10-30T05:11:24;15.03;;;7.90;;
21183;SDS011;18176;49.502;11.754;2022-10-30T05:15:25;12.13;;;7.00;;
21183;SDS011;18176;49.502;11.754;2022-10-30T05:19:27;14.50;;;7.60;;
21183;SDS011;18176;49.502;11.754;2022-10-30T05:23:28;16.40;;;8.43;;
21183;SDS011;18176;49.502;11.754;2022-10-30T05:27:28;16.77;;;8.00;;
21183;SDS011;18176;49.502;11.754;2022-10-30T05:31:30;16.33;;;7.67;;
21183;SDS011;18176;49.502;11.754;2022-10-30T05:35:48;14.23;;;7.40;;
21183;SDS011;18176;49.502;11.754;2022-10-30T05:39:49;19.40;;;8.00;;
21183;SDS011;18176;49.502;11.754;2022-10-30T05:43:57;11.90;;;8.10;;
21183;SDS011;18176;49.502;11.754;2022-10-30T05:47:59;15.33;;;7.67;;
21183;SDS011;18176;49.502;11.754;2022-10-30T05:52:10;13.83;;;8.30;;
21183;SDS011;18176;49.502;11.754;2022-10-30T05:56:10;15.93;;;8.30;;
21183;SDS011;18176;49.502;11.754;2022-10-30T06:00:11;17.07;;;7.93;;
21183;SDS011;18176;49.502;11.754;2022-10-30T06:04:13;16.23;;;8.63;;
21183;SDS011;18176;49.502;11.754;2022-10-30T06:08:16;15.03;;;8.57;;
21183;SDS011;18176;49.502;11.754;2022-10-30T06:12:19;15.93;;;7.57;;
21183;SDS011;18176;49.502;11.754;2022-10-30T06:16:27;13.27;;;7.93;;
21183;SDS011;18176;49.502;11.754;2022-10-30T06:20:56;26.53;;;11.47;;
21183;SDS011;18176;49.502;11.754;2022-10-30T06:25:25;21.67;;;11.33;;
21183;SDS011;18176;49.502;11.754;2022-10-30T06:30:02;15.40;;;9.50;;
21183;SDS011;18176;49.502;11.754;2022-10-30T06:34:03;16.00;;;8.90;;
21183;SDS011;18176;49.502;11.754;2022-10-30T06:38:06;15.93;;;9.40;;
21183;SDS011;18176;49.502;11.754;2022-10-30T06:42:10;14.63;;;9.37;;
21183;SDS011;18176;49.502;11.754;2022-10-30T06:46:21;15.43;;;9.20;;
21183;SDS011;18176;49.502;11.754;2022-10-30T06:50:28;14.10;;;9.57;;
21183;SDS011;18176;49.502;11.754;2022-10-30T06:54:29;16.90;;;9.70;;
21183;SDS011;18176;49.502;11.754;2022-10-30T06:58:32;14.63;;;8.80;;
21183;SDS011;18176;49.502;11.754;2022-10-30T07:02:40;15.30;;;9.03;;
21183;SDS011;18176;49.502;11.754;2022-10-30T07:06:42;16.80;;;7.90;;
21183;SDS011;18176;49.502;11.754;2022-10-30T07:10:42;19.23;;;8.60;;
21183;SDS011;18176;49.502;11.754;2022-10-30T07:15:09;15.03;;;8.37;;
21183;SDS011;18176;49.502;11.754;2022-10-30T07:19:28;20.93;;;10.83;;
21183;SDS011;18176;49.502;11.754;2022-10-30T07:23:28;13.47;;;8.80;;
21183;SDS011;18176;49.502;11.754;2022-10-30T07:27:42;17.80;;;9.40;;
21183;SDS011;18176;49.502;11.754;2022-10-30T07:32:13;16.57;;;9.40;;
21183;SDS011;18176;49.502;11.754;2022-10-30T07:36:32;19.73;;;9.43;;
21183;SDS011;18176;49.502;11.754;2022-10-30T07:40:53;18.15;;;9.40;;
21183;SDS011;18176;49.502;11.754;2022-10-30T07:45:11;16.80;;;9.63;;
21183;SDS011;18176;49.502;11.754;2022-10-30T07:49:46;16.52;;;9.60;;
21183;SDS011;18176;49.502;11.754;2022-10-30T07:53:47;18.45;;;9.18;;
21183;SDS011;18176;49.502;11.754;2022-10-30T07:57:48;17.02;;;9.30;;
21183;SDS011;18176;49.502;11.754;2022-10-30T08:02:08;17.20;;;8.90;;
21183;SDS011;18176;49.502;11.754;2022-10-30T08:06:43;14.05;;;9.23;;
21183;SDS011;18176;49.502;11.754;2022-10-30T08:10:43;14.50;;;8.45;;
21183;SDS011;18176;49.502;11.754;2022-10-30T08:14:43;10.73;;;7.45;;
21183;SDS011;18176;49.502;11.754;2022-10-30T08:18:44;17.95;;;8.63;;
21183;SDS011;18176;49.502;11.754;2022-10-30T08:22:51;19.90;;;9.13;;
21183;SDS011;18176;49.502;11.754;2022-10-30T08:26:53;15.75;;;7.97;;
21183;SDS011;18176;49.502;11.754;2022-10-30T08:30:56;17.38;;;8.25;;
21183;SDS011;18176;49.502;11.754;2022-10-30T08:35:17;17.60;;;8.70;;
21183;SDS011;18176;49.502;11.754;2022-10-30T08:39:20;22.40;;;8.27;;
21183;SDS011;18176;49.502;11.754;2022-10-30T08:43:31;14.52;;;7.72;;
21183;SDS011;18176;49.502;11.754;2022-10-30T08:47:49;15.32;;;7.40;;
21183;SDS011;18176;49.502;11.754;2022-10-30T08:51:57;13.10;;;7.22;;
21183;SDS011;18176;49.502;11.754;2022-10-30T08:55:57;15.93;;;7.10;;
21183;SDS011;18176;49.502;11.754;2022-10-30T09:00:12;17.95;;;7.90;;
21183;SDS011;18176;49.502;11.754;2022-10-30T09:04:38;15.82;;;7.20;;
21183;SDS011;18176;49.502;11.754;2022-10-30T09:09:07;17.05;;;7.60;;
21183;SDS011;18176;49.502;11.754;2022-10-30T09:13:13;15.25;;;7.30;;
21183;SDS011;18176;49.502;11.754;2022-10-30T09:17:14;16.10;;;6.90;;
21183;SDS011;18176;49.502;11.754;2022-10-30T09:21:19;14.45;;;7.00;;
21183;SDS011;18176;49.502;11.754;2022-10-30T09:25:21;14.05;;;6.82;;
21183;SDS011;18176;49.502;11.754;2022-10-30T09:29:34;15.18;;;7.05;;
21183;SDS011;18176;49.502;11.754;2022-10-30T09:33:37;12.13;;;6.75;;
21183;SDS011;18176;49.502;11.754;2022-10-30T09:38:00;14.55;;;6.60;;
21183;SDS011;18176;49.502;11.754;2022-10-30T09:46:46;13.63;;;6.05;;
21183;SDS011;18176;49.502;11.754;2022-10-30T09:51:03;14.85;;;6.00;;
21183;SDS011;18176;49.502;11.754;2022-10-30T09:55:29;13.32;;;6.32;;
21183;SDS011;18176;49.502;11.754;2022-10-30T09:59:41;13.90;;;6.25;;
21183;SDS011;18176;49.502;11.754;2022-10-30T10:04:15;12.65;;;6.05;;
21183;SDS011;18176;49.502;11.754;2022-10-30T10:08:27;16.20;;;5.95;;
21183;SDS011;18176;49.502;11.754;2022-10-30T10:12:53;15.85;;;6.25;;
21183;SDS011;18176;49.502;11.754;2022-10-30T10:16:58;12.55;;;5.97;;
21183;SDS011;18176;49.502;11.754;2022-10-30T10:21:05;14.82;;;6.10;;
21183;SDS011;18176;49.502;11.754;2022-10-30T10:25:14;14.82;;;6.00;;
21183;SDS011;18176;49.502;11.754;2022-10-30T10:29:26;15.73;;;6.40;;
21183;SDS011;18176;49.502;11.754;2022-10-30T10:33:48;11.82;;;6.68;;
21183;SDS011;18176;49.502;11.754;2022-10-30T10:38:06;15.13;;;6.43;;
21183;SDS011;18176;49.502;11.754;2022-10-30T10:42:23;14.82;;;6.63;;
21183;SDS011;18176;49.502;11.754;2022-10-30T10:46:46;15.50;;;6.95;;
21183;SDS011;18176;49.502;11.754;2022-10-30T10:51:12;12.63;;;6.35;;
21183;SDS011;18176;49.502;11.754;2022-10-30T10:55:19;16.63;;;6.15;;
21183;SDS011;18176;49.502;11.754;2022-10-30T10:59:28;17.88;;;7.00;;
21183;SDS011;18176;49.502;11.754;2022-10-30T11:03:41;15.15;;;6.50;;
21183;SDS011;18176;49.502;11.754;2022-10-30T11:07:53;20.30;;;6.80;;
21183;SDS011;18176;49.502;11.754;2022-10-30T11:12:02;17.73;;;6.65;;
21183;SDS011;18176;49.502;11.754;2022-10-30T11:16:08;24.42;;;8.13;;
21183;SDS011;18176;49.502;11.754;2022-10-30T11:20:27;14.65;;;6.80;;
21183;SDS011;18176;49.502;11.754;2022-10-30T11:24:34;17.58;;;6.57;;
21183;SDS011;18176;49.502;11.754;2022-10-30T11:28:38;18.27;;;7.03;;
21183;SDS011;18176;49.502;11.754;2022-10-30T11:32:48;16.88;;;6.40;;
21183;SDS011;18176;49.502;11.754;2022-10-30T11:36:55;15.00;;;6.72;;
21183;SDS011;18176;49.502;11.754;2022-10-30T11:40:55;13.27;;;6.72;;
21183;SDS011;18176;49.502;11.754;2022-10-30T11:44:56;13.27;;;6.30;;
21183;SDS011;18176;49.502;11.754;2022-10-30T11:48:56;11.80;;;6.60;;
21183;SDS011;18176;49.502;11.754;2022-10-30T11:52:59;14.85;;;6.78;;
21183;SDS011;18176;49.502;11.754;2022-10-30T11:57:22;12.77;;;6.15;;
21183;SDS011;18176;49.502;11.754;2022-10-30T12:01:33;16.27;;;6.30;;
21183;SDS011;18176;49.502;11.754;2022-10-30T12:05:36;17.52;;;6.45;;
21183;SDS011;18176;49.502;11.754;2022-10-30T12:09:43;12.27;;;6.53;;
21183;SDS011;18176;49.502;11.754;2022-10-30T12:13:45;14.13;;;6.47;;
21183;SDS011;18176;49.502;11.754;2022-10-30T12:17:49;20.85;;;6.45;;
21183;SDS011;18176;49.502;11.754;2022-10-30T12:21:51;17.38;;;6.40;;
21183;SDS011;18176;49.502;11.754;2022-10-30T12:25:59;13.52;;;6.25;;
21183;SDS011;18176;49.502;11.754;2022-10-30T12:30:13;13.27;;;6.25;;
21183;SDS011;18176;49.502;11.754;2022-10-30T12:34:23;16.08;;;6.05;;
21183;SDS011;18176;49.502;11.754;2022-10-30T12:38:35;17.63;;;6.60;;
21183;SDS011;18176;49.502;11.754;2022-10-30T12:42:47;15.70;;;6.93;;
21183;SDS011;18176;49.502;11.754;2022-10-30T12:46:58;14.65;;;6.55;;
21183;SDS011;18176;49.502;11.754;2022-10-30T12:51:11;17.58;;;6.68;;
21183;SDS011;18176;49.502;11.754;2022-10-30T12:55:21;16.40;;;6.00;;
21183;SDS011;18176;49.502;11.754;2022-10-30T12:59:34;21.42;;;6.68;;
21183;SDS011;18176;49.502;11.754;2022-10-30T13:03:49;14.90;;;6.25;;
21183;SDS011;18176;49.502;11.754;2022-10-30T13:08:00;16.05;;;6.43;;
21183;SDS011;18176;49.502;11.754;2022-10-30T13:12:13;13.68;;;6.05;;
21183;SDS011;18176;49.502;11.754;2022-10-30T13:16:23;24.02;;;6.38;;
21183;SDS011;18176;49.502;11.754;2022-10-30T13:20:27;15.57;;;6.13;;
21183;SDS011;18176;49.502;11.754;2022-10-30T13:24:33;14.02;;;6.55;;
21183;SDS011;18176;49.502;11.754;2022-10-30T13:28:50;15.43;;;5.82;;
21183;SDS011;18176;49.502;11.754;2022-10-30T13:33:05;15.35;;;5.95;;
21183;SDS011;18176;49.502;11.754;2022-10-30T13:37:18;13.90;;;6.20;;
21183;SDS011;18176;49.502;11.754;2022-10-30T13:41:29;15.07;;;6.28;;
21183;SDS011;18176;49.502;11.754;2022-10-30T13:45:51;15.38;;;6.45;;
21183;SDS011;18176;49.502;11.754;2022-10-30T13:50:13;16.77;;;6.00;;
21183;SDS011;18176;49.502;11.754;2022-10-30T13:54:29;16.13;;;5.80;;
21183;SDS011;18176;49.502;11.754;2022-10-30T13:58:36;18.02;;;6.47;;
21183;SDS011;18176;49.502;11.754;2022-10-30T14:03:03;18.70;;;6.25;;
21183;SDS011;18176;49.502;11.754;2022-10-30T14:07:26;13.98;;;6.13;;
21183;SDS011;18176;49.502;11.754;2022-10-30T14:11:36;15.45;;;6.25;;
21183;SDS011;18176;49.502;11.754;2022-10-30T14:15:39;14.82;;;6.63;;
21183;SDS011;18176;49.502;11.754;2022-10-30T14:24:28;17.13;;;5.80;;
21183;SDS011;18176;49.502;11.754;2022-10-30T14:28:31;15.60;;;6.07;;
21183;SDS011;18176;49.502;11.754;2022-10-30T14:32:35;21.67;;;7.72;;
21183;SDS011;18176;49.502;11.754;2022-10-30T14:36:48;22.85;;;7.78;;
21183;SDS011;18176;49.502;11.754;2022-10-30T14:40:59;14.95;;;5.50;;
21183;SDS011;18176;49.502;11.754;2022-10-30T14:45:24;12.52;;;5.43;;
21183;SDS011;18176;49.502;11.754;2022-10-30T14:53:58;16.40;;;5.68;;
21183;SDS011;18176;49.502;11.754;2022-10-30T14:58:18;14.45;;;5.25;;
21183;SDS011;18176;49.502;11.754;2022-10-30T15:02:31;11.85;;;4.88;;
21183;SDS011;18176;49.502;11.754;2022-10-30T15:06:49;14.38;;;5.18;;
21183;SDS011;18176;49.502;11.754;2022-10-30T15:11:04;11.65;;;4.88;;
21183;SDS011;18176;49.502;11.754;2022-10-30T15:15:23;16.67;;;4.75;;
21183;SDS011;18176;49.502;11.754;2022-10-30T15:19:24;16.25;;;5.10;;
21183;SDS011;18176;49.502;11.754;2022-10-30T15:23:26;12.65;;;5.03;;
21183;SDS011;18176;49.502;11.754;2022-10-30T15:27:29;9.95;;;4.90;;
21183;SDS011;18176;49.502;11.754;2022-10-30T15:31:35;11.07;;;4.72;;
21183;SDS011;18176;49.502;11.754;2022-10-30T15:35:35;12.52;;;4.80;;
21183;SDS011;18176;49.502;11.754;2022-10-30T15:39:35;13.40;;;4.85;;
21183;SDS011;18176;49.502;11.754;2022-10-30T15:43:36;13.73;;;4.97;;
21183;SDS011;18176;49.502;11.754;2022-10-30T15:47:46;12.95;;;4.80;;
21183;SDS011;18176;49.502;11.754;2022-10-30T15:51:55;12.90;;;4.88;;
21183;SDS011;18176;49.502;11.754;2022-10-30T15:55:57;19.35;;;6.13;;
21183;SDS011;18176;49.502;11.754;2022-10-30T16:00:00;18.33;;;6.10;;
21183;SDS011;18176;49.502;11.754;2022-10-30T16:04:14;12.90;;;5.90;;
21183;SDS011;18176;49.502;11.754;2022-10-30T16:08:18;19.05;;;6.10;;
21183;SDS011;18176;49.502;11.754;2022-10-30T16:12:22;15.20;;;6.82;;
21183;SDS011;18176;49.502;11.754;2022-10-30T16:16:25;16.20;;;6.65;;
21183;SDS011;18176;49.502;11.754;2022-10-30T16:20:31;15.70;;;6.97;;
21183;SDS011;18176;49.502;11.754;2022-10-30T16:24:32;17.73;;;8.27;;
21183;SDS011;18176;49.502;11.754;2022-10-30T16:28:35;18.15;;;7.50;;
21183;SDS011;18176;49.502;11.754;2022-10-30T16:32:36;16.58;;;8.02;;
21183;SDS011;18176;49.502;11.754;2022-10-30T16:36:43;20.02;;;8.30;;
21183;SDS011;18176;49.502;11.754;2022-10-30T16:40:44;47.90;;;35.45;;
21183;SDS011;18176;49.502;11.754;2022-10-30T16:44:45;27.70;;;14.45;;
21183;SDS011;18176;49.502;11.754;2022-10-30T16:48:47;28.60;;;14.82;;
21183;SDS011;18176;49.502;11.754;2022-10-30T16:52:59;32.97;;;17.27;;
21183;SDS011;18176;49.502;11.754;2022-10-30T16:57:07;27.70;;;15.52;;
21183;SDS011;18176;49.502;11.754;2022-10-30T17:01:18;36.72;;;19.00;;
21183;SDS011;18176;49.502;11.754;2022-10-30T17:05:25;26.00;;;15.52;;
21183;SDS011;18176;49.502;11.754;2022-10-30T17:09:33;30.40;;;16.33;;
21183;SDS011;18176;49.502;11.754;2022-10-30T17:13:36;45.40;;;27.55;;
21183;SDS011;18176;49.502;11.754;2022-10-30T17:17:40;38.05;;;20.38;;
21183;SDS011;18176;49.502;11.754;2022-10-30T17:21:40;40.83;;;22.65;;
21183;SDS011;18176;49.502;11.754;2022-10-30T17:25:43;46.90;;;27.52;;
21183;SDS011;18176;49.502;11.754;2022-10-30T17:29:45;36.25;;;19.67;;
21183;SDS011;18176;49.502;11.754;2022-10-30T17:33:45;42.63;;;25.65;;
21183;SDS011;18176;49.502;11.754;2022-10-30T17:37:47;82.70;;;51.10;;
21183;SDS011;18176;49.502;11.754;2022-10-30T17:41:50;51.78;;;28.83;;
21183;SDS011;18176;49.502;11.754;2022-10-30T17:45:55;29.20;;;17.63;;
21183;SDS011;18176;49.502;11.754;2022-10-30T17:49:56;26.38;;;16.33;;
21183;SDS011;18176;49.502;11.754;2022-10-30T17:53:58;33.58;;;17.52;;
21183;SDS011;18176;49.502;11.754;2022-10-30T17:58:01;35.53;;;20.60;;
21183;SDS011;18176;49.502;11.754;2022-10-30T18:02:01;40.22;;;23.08;;
21183;SDS011;18176;49.502;11.754;2022-10-30T18:06:13;49.80;;;29.33;;
21183;SDS011;18176;49.502;11.754;2022-10-30T18:10:16;38.38;;;21.65;;
21183;SDS011;18176;49.502;11.754;2022-10-30T18:14:19;34.27;;;20.20;;
21183;SDS011;18176;49.502;11.754;2022-10-30T18:18:19;33.63;;;19.40;;
21183;SDS011;18176;49.502;11.754;2022-10-30T18:22:19;26.27;;;18.05;;
21183;SDS011;18176;49.502;11.754;2022-10-30T18:26:21;36.87;;;21.87;;
21183;SDS011;18176;49.502;11.754;2022-10-30T18:30:25;33.50;;;19.27;;
21183;SDS011;18176;49.502;11.754;2022-10-30T18:34:26;36.00;;;18.53;;
21183;SDS011;18176;49.502;11.754;2022-10-30T18:38:26;36.80;;;20.60;;
21183;SDS011;18176;49.502;11.754;2022-10-30T18:42:27;47.67;;;27.87;;
21183;SDS011;18176;49.502;11.754;2022-10-30T18:46:30;61.63;;;29.37;;
21183;SDS011;18176;49.502;11.754;2022-10-30T18:50:31;49.60;;;25.20;;
21183;SDS011;18176;49.502;11.754;2022-10-30T18:54:33;55.87;;;26.13;;
21183;SDS011;18176;49.502;11.754;2022-10-30T18:58:33;47.27;;;25.00;;
21183;SDS011;18176;49.502;11.754;2022-10-30T19:02:36;42.37;;;21.80;;
21183;SDS011;18176;49.502;11.754;2022-10-30T19:06:36;39.93;;;21.40;;
21183;SDS011;18176;49.502;11.754;2022-10-30T19:10:37;38.67;;;22.43;;
21183;SDS011;18176;49.502;11.754;2022-10-30T19:14:39;35.40;;;20.87;;
21183;SDS011;18176;49.502;11.754;2022-10-30T19:18:43;42.07;;;22.27;;
21183;SDS011;18176;49.502;11.754;2022-10-30T19:22:46;40.03;;;21.60;;
21183;SDS011;18176;49.502;11.754;2022-10-30T19:26:46;36.50;;;21.40;;
21183;SDS011;18176;49.502;11.754;2022-10-30T19:30:47;37.10;;;21.03;;
21183;SDS011;18176;49.502;11.754;2022-10-30T19:34:53;45.73;;;23.20;;
21183;SDS011;18176;49.502;11.754;2022-10-30T19:38:53;43.40;;;23.00;;
21183;SDS011;18176;49.502;11.754;2022-10-30T19:42:58;40.33;;;20.23;;
21183;SDS011;18176;49.502;11.754;2022-10-30T19:46:59;33.53;;;17.83;;
21183;SDS011;18176;49.502;11.754;2022-10-30T19:51:01;27.90;;;17.60;;
21183;SDS011;18176;49.502;11.754;2022-10-30T19:55:02;38.20;;;19.83;;
21183;SDS011;18176;49.502;11.754;2022-10-30T19:59:04;35.83;;;18.47;;
21183;SDS011;18176;49.502;11.754;2022-10-30T20:03:08;44.90;;;20.87;;
21183;SDS011;18176;49.502;11.754;2022-10-30T20:07:16;44.40;;;22.03;;
21183;SDS011;18176;49.502;11.754;2022-10-30T20:11:17;42.20;;;21.33;;
21183;SDS011;18176;49.502;11.754;2022-10-30T20:15:18;39.83;;;20.50;;
21183;SDS011;18176;49.502;11.754;2022-10-30T20:19:25;37.70;;;20.37;;
21183;SDS011;18176;49.502;11.754;2022-10-30T20:23:30;33.10;;;17.43;;
21183;SDS011;18176;49.502;11.754;2022-10-30T20:27:30;33.70;;;17.67;;
21183;SDS011;18176;49.502;11.754;2022-10-30T20:31:31;27.03;;;16.77;;
21183;SDS011;18176;49.502;11.754;2022-10-30T20:35:31;24.17;;;15.57;;
21183;SDS011;18176;49.502;11.754;2022-10-30T20:39:34;30.27;;;16.83;;
21183;SDS011;18176;49.502;11.754;2022-10-30T20:43:35;25.83;;;16.23;;
21183;SDS011;18176;49.502;11.754;2022-10-30T20:47:37;29.77;;;15.77;;
21183;SDS011;18176;49.502;11.754;2022-10-30T20:51:37;29.13;;;15.53;;
21183;SDS011;18176;49.502;11.754;2022-10-30T20:55:40;26.50;;;14.93;;
21183;SDS011;18176;49.502;11.754;2022-10-30T20:59:40;24.27;;;14.93;;
21183;SDS011;18176;49.502;11.754;2022-10-30T21:03:40;23.63;;;14.90;;
21183;SDS011;18176;49.502;11.754;2022-10-30T21:07:41;20.77;;;12.93;;
21183;SDS011;18176;49.502;11.754;2022-10-30T21:11:44;21.83;;;13.07;;
21183;SDS011;18176;49.502;11.754;2022-10-30T21:15:44;21.77;;;14.00;;
21183;SDS011;18176;49.502;11.754;2022-10-30T21:19:46;20.50;;;12.00;;
21183;SDS011;18176;49.502;11.754;2022-10-30T21:23:46;14.07;;;9.60;;
21183;SDS011;18176;49.502;11.754;2022-10-30T21:27:49;11.93;;;8.50;;
21183;SDS011;18176;49.502;11.754;2022-10-30T21:31:49;12.10;;;8.13;;
21183;SDS011;18176;49.502;11.754;2022-10-30T21:35:50;18.57;;;8.13;;
21183;SDS011;18176;49.502;11.754;2022-10-30T21:39:50;20.27;;;11.83;;
21183;SDS011;18176;49.502;11.754;2022-10-30T21:43:54;29.70;;;14.97;;
21183;SDS011;18176;49.502;11.754;2022-10-30T21:47:56;31.37;;;17.03;;
21183;SDS011;18176;49.502;11.754;2022-10-30T21:51:56;29.27;;;15.77;;
21183;SDS011;18176;49.502;11.754;2022-10-30T21:55:56;29.50;;;15.57;;
21183;SDS011;18176;49.502;11.754;2022-10-30T22:00:03;27.80;;;14.57;;
21183;SDS011;18176;49.502;11.754;2022-10-30T22:04:06;24.43;;;14.77;;
21183;SDS011;18176;49.502;11.754;2022-10-30T22:08:08;27.37;;;13.87;;
21183;SDS011;18176;49.502;11.754;2022-10-30T22:12:08;26.93;;;15.33;;
21183;SDS011;18176;49.502;11.754;2022-10-30T22:16:12;25.57;;;13.10;;
21183;SDS011;18176;49.502;11.754;2022-10-30T22:20:13;24.23;;;12.60;;
21183;SDS011;18176;49.502;11.754;2022-10-30T22:24:14;21.00;;;12.53;;
21183;SDS011;18176;49.502;11.754;2022-10-30T22:28:15;20.37;;;12.20;;
21183;SDS011;18176;49.502;11.754;2022-10-30T22:32:17;20.13;;;12.23;;
21183;SDS011;18176;49.502;11.754;2022-10-30T22:36:18;20.60;;;13.53;;
21183;SDS011;18176;49.502;11.754;2022-10-30T22:40:21;22.50;;;13.23;;
21183;SDS011;18176;49.502;11.754;2022-10-30T22:44:21;22.80;;;11.27;;
21183;SDS011;18176;49.502;11.754;2022-10-30T22:48:26;20.07;;;10.73;;
21183;SDS011;18176;49.502;11.754;2022-10-30T22:52:27;18.33;;;10.83;;
21183;SDS011;18176;49.502;11.754;2022-10-30T22:56:28;20.57;;;9.90;;
21183;SDS011;18176;49.502;11.754;2022-10-30T23:00:30;22.13;;;11.00;;
21183;SDS011;18176;49.502;11.754;2022-10-30T23:04:33;25.83;;;12.53;;
21183;SDS011;18176;49.502;11.754;2022-10-30T23:08:33;30.30;;;13.30;;
21183;SDS011;18176;49.502;11.754;2022-10-30T23:12:34;34.67;;;12.67;;
21183;SDS011;18176;49.502;11.754;2022-10-30T23:16:34;29.50;;;12.53;;
21183;SDS011;18176;49.502;11.754;2022-10-30T23:20:37;22.60;;;10.97;;
21183;SDS011;18176;49.502;11.754;2022-10-30T23:24:39;24.83;;;12.10;;
21183;SDS011;18176;49.502;11.754;2022-10-30T23:28:39;28.50;;;12.13;;
21183;SDS011;18176;49.502;11.754;2022-10-30T23:32:40;31.37;;;12.13;;
21183;SDS011;18176;49.502;11.754;2022-10-30T23:36:43;23.70;;;10.70;;
21183;SDS011;18176;49.502;11.754;2022-10-30T23:40:43;24.33;;;10.83;;
21183;SDS011;18176;49.502;11.754;2022-10-30T23:44:44;27.57;;;10.60;;
21183;SDS011;18176;49.502;11.754;2022-10-30T23:48:44;25.80;;;11.30;;
21183;SDS011;18176;49.502;11.754;2022-10-30T23:52:46;31.77;;;11.07;;
21183;SDS011;18176;49.502;11.754;2022-10-30T23:56:47;20.30;;;9.83;;
